sensor_id;sensor_type;location;lat;lon;timestamp;pressure;altitude;pressure_sealevel;temperature;humidity
788;BME280;16074;42.708;23.312;2023-04-06T00:00:27;138470.16;;;0.63;100.00
788;BME280;16074;42.708;23.312;2023-04-06T00:02:55;138464.16;;;0.61;100.00
788;BME280;16074;42.708;23.312;2023-04-06T00:05:24;138451.06;;;0.55;100.00
788;BME280;16074;42.708;23.312;2023-04-06T00:07:53;138453.44;;;0.56;100.00
788;BME280;16074;42.708;23.312;2023-04-06T00:10:22;138470.16;;;0.63;100.00
788;BME280;16074;42.708;23.312;2023-04-06T00:12:51;138461.78;;;0.60;100.00
788;BME280;16074;42.708;23.312;2023-04-06T00:15:20;138471.31;;;0.64;100.00
788;BME280;16074;42.708;23.312;2023-04-06T00:17:48;138486.84;;;0.70;100.00
788;BME280;16074;42.708;23.312;2023-04-06T00:20:17;138447.50;;;0.54;100.00
788;BME280;16074;42.708;23.312;2023-04-06T00:22:46;138445.13;;;0.53;100.00
788;BME280;16074;42.708;23.312;2023-04-06T00:25:16;138464.16;;;0.61;100.00
788;BME280;16074;42.708;23.312;2023-04-06T00:27:44;138454.63;;;0.57;100.00
788;BME280;16074;42.708;23.312;2023-04-06T00:30:12;138445.13;;;0.53;100.00
788;BME280;16074;42.708;23.312;2023-04-06T00:32:41;138449.88;;;0.55;100.00
788;BME280;16074;42.708;23.312;2023-04-06T00:35:10;138446.28;;;0.53;100.00
788;BME280;16074;42.708;23.312;2023-04-06T00:37:38;138437.97;;;0.50;100.00
788;BME280;16074;42.708;23.312;2023-04-06T00:40:07;138441.53;;;0.51;100.00
788;BME280;16074;42.708;23.312;2023-04-06T00:42:38;138433.19;;;0.48;100.00
788;BME280;16074;42.708;23.312;2023-04-06T00:45:08;138461.78;;;0.60;100.00
788;BME280;16074;42.708;23.312;2023-04-06T00:47:36;138472.53;;;0.64;100.00
788;BME280;16074;42.708;23.312;2023-04-06T00:50:06;138479.69;;;0.67;100.00
788;BME280;16074;42.708;23.312;2023-04-06T00:52:35;138480.84;;;0.68;100.00
788;BME280;16074;42.708;23.312;2023-04-06T00:55:06;138489.22;;;0.71;100.00
788;BME280;16074;42.708;23.312;2023-04-06T00:57:41;138507.09;;;0.79;100.00
788;BME280;16074;42.708;23.312;2023-04-06T01:00:10;138521.41;;;0.85;100.00
788;BME280;16074;42.708;23.312;2023-04-06T01:02:40;138552.44;;;0.98;100.00
788;BME280;16074;42.708;23.312;2023-04-06T01:05:10;138569.13;;;1.05;99.42
788;BME280;16074;42.708;23.312;2023-04-06T01:07:47;138571.53;;;1.06;99.03
788;BME280;16074;42.708;23.312;2023-04-06T01:10:23;138614.44;;;1.23;98.87
788;BME280;16074;42.708;23.312;2023-04-06T01:12:58;138622.81;;;1.27;98.35
788;BME280;16074;42.708;23.312;2023-04-06T01:15:42;138638.31;;;1.33;98.79
788;BME280;16074;42.708;23.312;2023-04-06T01:18:15;138615.66;;;1.24;98.48
788;BME280;16074;42.708;23.312;2023-04-06T01:20:54;138594.16;;;1.15;99.25
788;BME280;16074;42.708;23.312;2023-04-06T01:23:26;138625.19;;;1.28;99.50
788;BME280;16074;42.708;23.312;2023-04-06T01:25:54;138639.53;;;1.34;99.96
788;BME280;16074;42.708;23.312;2023-04-06T01:28:23;138635.91;;;1.32;100.00
788;BME280;16074;42.708;23.312;2023-04-06T01:31:03;138635.91;;;1.32;100.00
788;BME280;16074;42.708;23.312;2023-04-06T01:33:57;138650.25;;;1.38;100.00
788;BME280;16074;42.708;23.312;2023-04-06T01:36:26;138631.16;;;1.30;100.00
788;BME280;16074;42.708;23.312;2023-04-06T01:39:05;138639.53;;;1.34;100.00
788;BME280;16074;42.708;23.312;2023-04-06T01:41:36;138665.72;;;1.45;100.00
788;BME280;16074;42.708;23.312;2023-04-06T01:44:05;138645.47;;;1.36;100.00
788;BME280;16074;42.708;23.312;2023-04-06T01:46:33;138634.75;;;1.32;100.00
788;BME280;16074;42.708;23.312;2023-04-06T01:49:04;138641.91;;;1.35;100.00
788;BME280;16074;42.708;23.312;2023-04-06T01:51:38;138628.75;;;1.29;100.00
788;BME280;16074;42.708;23.312;2023-04-06T01:54:12;138646.69;;;1.37;100.00
788;BME280;16074;42.708;23.312;2023-04-06T01:57:09;138668.13;;;1.46;100.00
788;BME280;16074;42.708;23.312;2023-04-06T01:59:47;138655.00;;;1.40;100.00
788;BME280;16074;42.708;23.312;2023-04-06T02:02:29;138647.84;;;1.37;100.00
788;BME280;16074;42.708;23.312;2023-04-06T02:05:07;138634.75;;;1.32;100.00
788;BME280;16074;42.708;23.312;2023-04-06T02:07:36;138613.25;;;1.23;100.00
788;BME280;16074;42.708;23.312;2023-04-06T02:10:11;138639.53;;;1.34;100.00
788;BME280;16074;42.708;23.312;2023-04-06T02:12:40;138647.84;;;1.37;100.00
788;BME280;16074;42.708;23.312;2023-04-06T02:15:12;138646.69;;;1.37;100.00
788;BME280;16074;42.708;23.312;2023-04-06T02:17:41;138668.13;;;1.46;100.00
788;BME280;16074;42.708;23.312;2023-04-06T02:20:10;138644.28;;;1.36;100.00
788;BME280;16074;42.708;23.312;2023-04-06T02:22:38;138637.13;;;1.33;100.00
788;BME280;16074;42.708;23.312;2023-04-06T02:25:09;138631.16;;;1.30;100.00
788;BME280;16074;42.708;23.312;2023-04-06T02:27:38;138637.13;;;1.33;100.00
788;BME280;16074;42.708;23.312;2023-04-06T02:30:07;138621.59;;;1.26;100.00
788;BME280;16074;42.708;23.312;2023-04-06T02:32:35;138629.97;;;1.30;100.00
788;BME280;16074;42.708;23.312;2023-04-06T02:35:04;138637.13;;;1.33;100.00
788;BME280;16074;42.708;23.312;2023-04-06T02:37:34;138640.69;;;1.34;100.00
788;BME280;16074;42.708;23.312;2023-04-06T02:40:03;138631.16;;;1.30;100.00
788;BME280;16074;42.708;23.312;2023-04-06T02:42:34;138637.13;;;1.33;100.00
788;BME280;16074;42.708;23.312;2023-04-06T02:45:04;138627.59;;;1.29;100.00
788;BME280;16074;42.708;23.312;2023-04-06T02:47:39;138606.09;;;1.20;100.00
788;BME280;16074;42.708;23.312;2023-04-06T02:50:08;138622.81;;;1.27;100.00
788;BME280;16074;42.708;23.312;2023-04-06T02:52:45;138641.91;;;1.35;100.00
788;BME280;16074;42.708;23.312;2023-04-06T02:55:13;138629.97;;;1.30;100.00
788;BME280;16074;42.708;23.312;2023-04-06T02:57:43;138626.38;;;1.28;100.00
788;BME280;16074;42.708;23.312;2023-04-06T03:00:12;138618.03;;;1.25;100.00
788;BME280;16074;42.708;23.312;2023-04-06T03:02:41;138625.19;;;1.28;98.99
788;BME280;16074;42.708;23.312;2023-04-06T03:05:13;138635.91;;;1.32;98.53
788;BME280;16074;42.708;23.312;2023-04-06T03:07:43;138647.84;;;1.37;97.63
788;BME280;16074;42.708;23.312;2023-04-06T03:10:35;138658.56;;;1.42;97.54
788;BME280;16074;42.708;23.312;2023-04-06T03:13:05;138662.19;;;1.43;95.91
788;BME280;16074;42.708;23.312;2023-04-06T03:15:44;138687.22;;;1.54;95.76
788;BME280;16074;42.708;23.312;2023-04-06T03:18:20;138684.84;;;1.53;95.67
788;BME280;16074;42.708;23.312;2023-04-06T03:20:49;138689.59;;;1.55;96.28
788;BME280;16074;42.708;23.312;2023-04-06T03:23:19;138720.66;;;1.68;97.05
788;BME280;16074;42.708;23.312;2023-04-06T03:25:52;138723.03;;;1.69;98.65
788;BME280;16074;42.708;23.312;2023-04-06T03:28:22;138734.97;;;1.74;98.91
788;BME280;16074;42.708;23.312;2023-04-06T03:30:54;138751.69;;;1.81;99.28
788;BME280;16074;42.708;23.312;2023-04-06T03:33:39;138723.03;;;1.69;98.25
788;BME280;16074;42.708;23.312;2023-04-06T03:36:12;138734.97;;;1.74;98.61
788;BME280;16074;42.708;23.312;2023-04-06T03:38:43;138730.19;;;1.72;98.79
788;BME280;16074;42.708;23.312;2023-04-06T03:41:13;138742.13;;;1.77;99.24
788;BME280;16074;42.708;23.312;2023-04-06T03:43:49;138745.69;;;1.78;99.25
788;BME280;16074;42.708;23.312;2023-04-06T03:46:17;138754.09;;;1.82;98.62
788;BME280;16074;42.708;23.312;2023-04-06T03:48:49;138757.66;;;1.83;99.90
788;BME280;16074;42.708;23.312;2023-04-06T03:51:20;138761.25;;;1.85;100.00
788;BME280;16074;42.708;23.312;2023-04-06T03:53:48;138751.69;;;1.81;100.00
788;BME280;16074;42.708;23.312;2023-04-06T03:56:16;138742.13;;;1.77;100.00
788;BME280;16074;42.708;23.312;2023-04-06T03:58:44;138708.72;;;1.63;100.00
788;BME280;16074;42.708;23.312;2023-04-06T04:01:18;138696.78;;;1.58;100.00
788;BME280;16074;42.708;23.312;2023-04-06T04:03:46;138706.31;;;1.62;100.00
788;BME280;16074;42.708;23.312;2023-04-06T04:06:17;138715.88;;;1.66;100.00
788;BME280;16074;42.708;23.312;2023-04-06T04:08:46;138683.66;;;1.52;100.00
788;BME280;16074;42.708;23.312;2023-04-06T04:11:15;138670.50;;;1.47;100.00
788;BME280;16074;42.708;23.312;2023-04-06T04:13:47;138696.78;;;1.58;100.00
788;BME280;16074;42.708;23.312;2023-04-06T04:16:17;138637.13;;;1.33;100.00
788;BME280;16074;42.708;23.312;2023-04-06T04:18:46;138622.81;;;1.27;100.00
788;BME280;16074;42.708;23.312;2023-04-06T04:21:15;138618.03;;;1.25;100.00
788;BME280;16074;42.708;23.312;2023-04-06T04:23:43;138620.44;;;1.26;100.00
788;BME280;16074;42.708;23.312;2023-04-06T04:26:12;138625.19;;;1.28;100.00
788;BME280;16074;42.708;23.312;2023-04-06T04:28:44;138638.31;;;1.33;100.00
788;BME280;16074;42.708;23.312;2023-04-06T04:31:13;138622.81;;;1.27;100.00
788;BME280;16074;42.708;23.312;2023-04-06T04:33:46;138608.50;;;1.21;100.00
788;BME280;16074;42.708;23.312;2023-04-06T04:36:21;138609.66;;;1.21;100.00
788;BME280;16074;42.708;23.312;2023-04-06T04:38:50;138643.09;;;1.35;100.00
788;BME280;16074;42.708;23.312;2023-04-06T04:41:19;138655.00;;;1.40;100.00
788;BME280;16074;42.708;23.312;2023-04-06T04:43:48;138675.28;;;1.49;100.00
788;BME280;16074;42.708;23.312;2023-04-06T04:46:21;138682.44;;;1.52;100.00
788;BME280;16074;42.708;23.312;2023-04-06T04:48:52;138698.00;;;1.58;100.00
788;BME280;16074;42.708;23.312;2023-04-06T04:51:21;138732.59;;;1.73;100.00
788;BME280;16074;42.708;23.312;2023-04-06T04:54:05;138761.25;;;1.85;100.00
788;BME280;16074;42.708;23.312;2023-04-06T04:56:33;138770.81;;;1.89;100.00
788;BME280;16074;42.708;23.312;2023-04-06T04:59:27;138798.25;;;2.00;100.00
788;BME280;16074;42.708;23.312;2023-04-06T05:02:06;138819.75;;;2.09;100.00
788;BME280;16074;42.708;23.312;2023-04-06T05:04:44;138804.19;;;2.03;100.00
788;BME280;16074;42.708;23.312;2023-04-06T05:07:19;138831.69;;;2.14;100.00
788;BME280;16074;42.708;23.312;2023-04-06T05:09:49;138808.97;;;2.05;100.00
788;BME280;16074;42.708;23.312;2023-04-06T05:12:18;138836.47;;;2.16;100.00
788;BME280;16074;42.708;23.312;2023-04-06T05:15:00;138836.47;;;2.16;99.04
788;BME280;16074;42.708;23.312;2023-04-06T05:17:28;138844.81;;;2.20;98.09
788;BME280;16074;42.708;23.312;2023-04-06T05:19:59;138851.97;;;2.23;97.83
788;BME280;16074;42.708;23.312;2023-04-06T05:22:30;138847.19;;;2.21;97.56
788;BME280;16074;42.708;23.312;2023-04-06T05:25:08;138857.97;;;2.25;96.22
788;BME280;16074;42.708;23.312;2023-04-06T05:27:38;138812.59;;;2.06;96.69
788;BME280;16074;42.708;23.312;2023-04-06T05:30:17;138834.09;;;2.15;96.91
788;BME280;16074;42.708;23.312;2023-04-06T05:32:48;138834.09;;;2.15;96.31
788;BME280;16074;42.708;23.312;2023-04-06T05:35:18;138808.97;;;2.05;96.34
788;BME280;16074;42.708;23.312;2023-04-06T05:37:50;138812.59;;;2.06;97.42
788;BME280;16074;42.708;23.312;2023-04-06T05:40:23;138824.53;;;2.11;97.67
788;BME280;16074;42.708;23.312;2023-04-06T05:42:52;138817.34;;;2.08;97.59
788;BME280;16074;42.708;23.312;2023-04-06T05:45:20;138834.09;;;2.15;98.07
788;BME280;16074;42.708;23.312;2023-04-06T05:47:53;138851.97;;;2.23;98.51
788;BME280;16074;42.708;23.312;2023-04-06T05:50:26;138869.88;;;2.30;98.18
788;BME280;16074;42.708;23.312;2023-04-06T05:52:56;138875.88;;;2.33;98.00
788;BME280;16074;42.708;23.312;2023-04-06T05:55:30;138865.09;;;2.28;97.35
788;BME280;16074;42.708;23.312;2023-04-06T05:58:17;138889.00;;;2.38;96.91
788;BME280;16074;42.708;23.312;2023-04-06T06:00:47;138897.38;;;2.41;98.71
788;BME280;16074;42.708;23.312;2023-04-06T06:03:17;138910.50;;;2.47;98.41
788;BME280;16074;42.708;23.312;2023-04-06T06:05:52;138899.78;;;2.42;98.79
788;BME280;16074;42.708;23.312;2023-04-06T06:08:28;138927.22;;;2.54;99.21
788;BME280;16074;42.708;23.312;2023-04-06T06:10:59;138929.63;;;2.55;98.07
788;BME280;16074;42.708;23.312;2023-04-06T06:13:28;138927.22;;;2.54;97.19
788;BME280;16074;42.708;23.312;2023-04-06T06:15:57;138891.38;;;2.39;96.42
788;BME280;16074;42.708;23.312;2023-04-06T06:18:26;138914.09;;;2.48;96.43
788;BME280;16074;42.708;23.312;2023-04-06T06:20:56;138909.31;;;2.46;94.95
788;BME280;16074;42.708;23.312;2023-04-06T06:23:25;138906.94;;;2.45;95.06
788;BME280;16074;42.708;23.312;2023-04-06T06:25:54;138966.66;;;2.70;95.13
788;BME280;16074;42.708;23.312;2023-04-06T06:28:25;138965.47;;;2.70;94.17
788;BME280;16074;42.708;23.312;2023-04-06T06:30:54;138990.56;;;2.80;94.86
788;BME280;16074;42.708;23.312;2023-04-06T06:33:24;139016.84;;;2.91;93.63
788;BME280;16074;42.708;23.312;2023-04-06T06:35:56;139004.91;;;2.86;93.07
788;BME280;16074;42.708;23.312;2023-04-06T06:38:24;139001.28;;;2.85;93.10
788;BME280;16074;42.708;23.312;2023-04-06T06:40:53;139035.97;;;2.99;93.03
788;BME280;16074;42.708;23.312;2023-04-06T06:43:25;139035.97;;;2.99;90.88
788;BME280;16074;42.708;23.312;2023-04-06T06:46:02;139064.69;;;3.11;91.35
788;BME280;16074;42.708;23.312;2023-04-06T06:48:30;139067.03;;;3.12;91.53
788;BME280;16074;42.708;23.312;2023-04-06T06:51:00;139083.75;;;3.19;91.67
788;BME280;16074;42.708;23.312;2023-04-06T06:53:29;139084.97;;;3.20;91.51
788;BME280;16074;42.708;23.312;2023-04-06T06:55:57;139106.50;;;3.29;92.18
788;BME280;16074;42.708;23.312;2023-04-06T06:58:26;139110.06;;;3.30;90.51
788;BME280;16074;42.708;23.312;2023-04-06T07:00:56;139118.47;;;3.34;88.95
788;BME280;16074;42.708;23.312;2023-04-06T07:03:25;139134.00;;;3.40;88.41
788;BME280;16074;42.708;23.312;2023-04-06T07:05:55;139136.38;;;3.41;88.84
788;BME280;16074;42.708;23.312;2023-04-06T07:08:26;139153.13;;;3.48;87.57
788;BME280;16074;42.708;23.312;2023-04-06T07:10:54;139185.41;;;3.61;88.07
788;BME280;16074;42.708;23.312;2023-04-06T07:13:23;139221.31;;;3.76;86.50
788;BME280;16074;42.708;23.312;2023-04-06T07:15:56;139216.50;;;3.74;86.41
788;BME280;16074;42.708;23.312;2023-04-06T07:18:25;139172.28;;;3.56;86.07
788;BME280;16074;42.708;23.312;2023-04-06T07:20:53;139230.88;;;3.80;86.20
788;BME280;16074;42.708;23.312;2023-04-06T07:23:21;139242.84;;;3.85;86.53
788;BME280;16074;42.708;23.312;2023-04-06T07:25:51;139251.19;;;3.89;84.30
788;BME280;16074;42.708;23.312;2023-04-06T07:28:20;139215.28;;;3.74;83.91
788;BME280;16074;42.708;23.312;2023-04-06T07:30:49;139228.47;;;3.79;83.92
788;BME280;16074;42.708;23.312;2023-04-06T07:33:17;139203.31;;;3.69;84.36
788;BME280;16074;42.708;23.312;2023-04-06T07:35:46;139194.97;;;3.65;84.63
788;BME280;16074;42.708;23.312;2023-04-06T07:38:15;139181.84;;;3.60;84.69
788;BME280;16074;42.708;23.312;2023-04-06T07:40:43;139165.09;;;3.53;85.07
788;BME280;16074;42.708;23.312;2023-04-06T07:43:14;139216.50;;;3.74;84.10
788;BME280;16074;42.708;23.312;2023-04-06T07:45:42;139234.44;;;3.82;82.90
788;BME280;16074;42.708;23.312;2023-04-06T07:48:13;139222.47;;;3.77;83.15
788;BME280;16074;42.708;23.312;2023-04-06T07:50:41;139290.66;;;4.05;82.56
788;BME280;16074;42.708;23.312;2023-04-06T07:53:10;139272.72;;;3.98;80.79
788;BME280;16074;42.708;23.312;2023-04-06T07:55:38;139326.56;;;4.20;80.51
788;BME280;16074;42.708;23.312;2023-04-06T07:58:07;139326.56;;;4.20;78.91
788;BME280;16074;42.708;23.312;2023-04-06T08:00:36;139382.81;;;4.44;78.72
788;BME280;16074;42.708;23.312;2023-04-06T08:03:05;139398.41;;;4.50;77.57
788;BME280;16074;42.708;23.312;2023-04-06T08:05:34;139458.22;;;4.75;77.05
788;BME280;16074;42.708;23.312;2023-04-06T08:08:02;139416.34;;;4.58;75.03
788;BME280;16074;42.708;23.312;2023-04-06T08:10:31;139546.84;;;5.12;75.91
788;BME280;16074;42.708;23.312;2023-04-06T08:13:01;139639.09;;;5.50;72.98
788;BME280;16074;42.708;23.312;2023-04-06T08:15:29;139723.06;;;5.85;69.25
788;BME280;16074;42.708;23.312;2023-04-06T08:17:59;139641.47;;;5.51;67.98
788;BME280;16074;42.708;23.312;2023-04-06T08:20:27;139762.59;;;6.01;67.52
788;BME280;16074;42.708;23.312;2023-04-06T08:22:56;139701.41;;;5.76;66.23
788;BME280;16074;42.708;23.312;2023-04-06T08:25:24;139785.34;;;6.11;66.42
788;BME280;16074;42.708;23.312;2023-04-06T08:27:52;139808.16;;;6.20;64.98
788;BME280;16074;42.708;23.312;2023-04-06T08:30:21;139755.41;;;5.98;64.66
788;BME280;16074;42.708;23.312;2023-04-06T08:32:49;139853.69;;;6.39;64.25
788;BME280;16074;42.708;23.312;2023-04-06T08:35:19;139667.84;;;5.62;65.90
788;BME280;16074;42.708;23.312;2023-04-06T08:37:47;139715.84;;;5.82;66.13
788;BME280;16074;42.708;23.312;2023-04-06T08:40:16;139724.22;;;5.86;65.84
788;BME280;16074;42.708;23.312;2023-04-06T08:42:49;139865.69;;;6.44;64.01
788;BME280;16074;42.708;23.312;2023-04-06T08:45:18;139863.31;;;6.43;63.47
788;BME280;16074;42.708;23.312;2023-04-06T08:47:49;139943.66;;;6.77;63.19
788;BME280;16074;42.708;23.312;2023-04-06T08:50:20;139962.88;;;6.85;61.26
788;BME280;16074;42.708;23.312;2023-04-06T08:52:49;139905.28;;;6.61;62.01
788;BME280;16074;42.708;23.312;2023-04-06T08:55:17;139924.47;;;6.69;61.36
788;BME280;16074;42.708;23.312;2023-04-06T08:57:46;139865.69;;;6.44;61.52
788;BME280;16074;42.708;23.312;2023-04-06T09:00:16;139912.47;;;6.64;62.50
788;BME280;16074;42.708;23.312;2023-04-06T09:02:45;139932.91;;;6.72;60.67
788;BME280;16074;42.708;23.312;2023-04-06T09:05:15;139876.53;;;6.49;63.19
788;BME280;16074;42.708;23.312;2023-04-06T09:07:45;140008.47;;;7.04;61.11
788;BME280;16074;42.708;23.312;2023-04-06T09:10:13;140042.06;;;7.17;60.03
788;BME280;16074;42.708;23.312;2023-04-06T09:12:42;140132.09;;;7.55;58.69
788;BME280;16074;42.708;23.312;2023-04-06T09:15:18;140121.31;;;7.50;58.17
788;BME280;16074;42.708;23.312;2023-04-06T09:17:50;140247.38;;;8.03;57.37
788;BME280;16074;42.708;23.312;2023-04-06T09:20:22;140098.47;;;7.41;57.67
788;BME280;16074;42.708;23.312;2023-04-06T09:22:54;140267.81;;;8.11;56.85
788;BME280;16074;42.708;23.312;2023-04-06T09:25:24;140439.69;;;8.82;55.68
788;BME280;16074;42.708;23.312;2023-04-06T09:28:01;140511.81;;;9.12;54.41
788;BME280;16074;42.708;23.312;2023-04-06T09:30:30;140389.19;;;8.61;53.94
788;BME280;16074;42.708;23.312;2023-04-06T09:32:58;140329.13;;;8.36;53.86
788;BME280;16074;42.708;23.312;2023-04-06T09:35:27;140390.41;;;8.62;54.18
788;BME280;16074;42.708;23.312;2023-04-06T09:37:58;140485.38;;;9.01;53.07
788;BME280;16074;42.708;23.312;2023-04-06T09:40:27;140516.63;;;9.14;52.92
788;BME280;16074;42.708;23.312;2023-04-06T09:42:56;140564.72;;;9.34;52.05
788;BME280;16074;42.708;23.312;2023-04-06T09:45:27;140533.44;;;9.21;50.55
788;BME280;16074;42.708;23.312;2023-04-06T09:47:57;140451.72;;;8.87;51.29
788;BME280;16074;42.708;23.312;2023-04-06T09:50:27;140368.78;;;8.53;52.76
788;BME280;16074;42.708;23.312;2023-04-06T09:53:00;140321.91;;;8.33;53.56
788;BME280;16074;42.708;23.312;2023-04-06T09:55:33;140377.16;;;8.56;53.72
788;BME280;16074;42.708;23.312;2023-04-06T09:58:04;140386.78;;;8.60;53.58
788;BME280;16074;42.708;23.312;2023-04-06T10:00:41;140376.00;;;8.56;52.17
788;BME280;16074;42.708;23.312;2023-04-06T10:03:20;140288.25;;;8.20;53.20
788;BME280;16074;42.708;23.312;2023-04-06T10:05:52;140270.22;;;8.12;53.74
788;BME280;16074;42.708;23.312;2023-04-06T10:08:28;140147.72;;;7.61;53.74
788;BME280;16074;42.708;23.312;2023-04-06T10:10:59;139798.56;;;6.16;57.00
788;BME280;16074;42.708;23.312;2023-04-06T10:13:28;139850.13;;;6.38;57.49
788;BME280;16074;42.708;23.312;2023-04-06T10:15:57;139892.09;;;6.55;58.14
788;BME280;16074;42.708;23.312;2023-04-06T10:18:28;139964.06;;;6.85;57.50
788;BME280;16074;42.708;23.312;2023-04-06T10:21:01;139928.09;;;6.70;56.56
788;BME280;16074;42.708;23.312;2023-04-06T10:23:36;139972.47;;;6.89;57.61
788;BME280;16074;42.708;23.312;2023-04-06T10:26:05;140069.69;;;7.29;56.10
788;BME280;16074;42.708;23.312;2023-04-06T10:28:35;140103.25;;;7.43;54.93
788;BME280;16074;42.708;23.312;2023-04-06T10:31:05;140158.50;;;7.66;54.68
788;BME280;16074;42.708;23.312;2023-04-06T10:33:34;140270.22;;;8.12;53.91
788;BME280;16074;42.708;23.312;2023-04-06T10:36:11;140408.44;;;8.69;52.93
788;BME280;16074;42.708;23.312;2023-04-06T10:38:42;140434.88;;;8.80;52.03
788;BME280;16074;42.708;23.312;2023-04-06T10:41:11;140381.97;;;8.58;51.36
788;BME280;16074;42.708;23.312;2023-04-06T10:43:41;140430.06;;;8.78;51.89
788;BME280;16074;42.708;23.312;2023-04-06T10:46:10;140521.44;;;9.16;51.32
788;BME280;16074;42.708;23.312;2023-04-06T10:48:39;140541.91;;;9.25;50.15
788;BME280;16074;42.708;23.312;2023-04-06T10:51:09;140571.94;;;9.37;49.92
788;BME280;16074;42.708;23.312;2023-04-06T10:53:38;140586.38;;;9.43;48.82
788;BME280;16074;42.708;23.312;2023-04-06T10:56:11;140555.09;;;9.30;47.84
788;BME280;16074;42.708;23.312;2023-04-06T10:58:44;140598.41;;;9.48;48.19
788;BME280;16074;42.708;23.312;2023-04-06T11:01:14;140687.44;;;9.85;48.73
788;BME280;16074;42.708;23.312;2023-04-06T11:03:43;140444.50;;;8.84;49.49
788;BME280;16074;42.708;23.312;2023-04-06T11:06:18;140640.50;;;9.65;49.48
788;BME280;16074;42.708;23.312;2023-04-06T11:08:47;140597.19;;;9.47;47.37
788;BME280;16074;42.708;23.312;2023-04-06T11:11:18;140389.19;;;8.61;48.38
788;BME280;16074;42.708;23.312;2023-04-06T11:13:49;140183.72;;;7.76;50.62
788;BME280;16074;42.708;23.312;2023-04-06T11:16:18;140120.06;;;7.50;52.83
788;BME280;16074;42.708;23.312;2023-04-06T11:18:52;140062.47;;;7.26;52.67
788;BME280;16074;42.708;23.312;2023-04-06T11:21:31;140117.69;;;7.49;53.31
788;BME280;16074;42.708;23.312;2023-04-06T11:24:05;140252.16;;;8.05;52.18
788;BME280;16074;42.708;23.312;2023-04-06T11:26:38;140336.34;;;8.39;50.89
788;BME280;16074;42.708;23.312;2023-04-06T11:29:08;140321.91;;;8.33;50.73
788;BME280;16074;42.708;23.312;2023-04-06T11:31:44;140388.00;;;8.61;49.63
788;BME280;16074;42.708;23.312;2023-04-06T11:34:17;140490.19;;;9.03;49.86
788;BME280;16074;42.708;23.312;2023-04-06T11:36:46;140532.28;;;9.21;49.37
788;BME280;16074;42.708;23.312;2023-04-06T11:39:20;140543.06;;;9.25;48.88
788;BME280;16074;42.708;23.312;2023-04-06T11:41:52;140559.91;;;9.32;48.88
788;BME280;16074;42.708;23.312;2023-04-06T11:44:29;140569.53;;;9.36;48.66
788;BME280;16074;42.708;23.312;2023-04-06T11:46:58;140598.41;;;9.48;48.65
788;BME280;16074;42.708;23.312;2023-04-06T11:49:27;140562.31;;;9.33;48.07
788;BME280;16074;42.708;23.312;2023-04-06T11:51:56;140622.50;;;9.58;48.60
788;BME280;16074;42.708;23.312;2023-04-06T11:54:35;140654.97;;;9.71;48.04
788;BME280;16074;42.708;23.312;2023-04-06T11:57:05;140692.25;;;9.87;48.15
788;BME280;16074;42.708;23.312;2023-04-06T11:59:34;140636.88;;;9.64;48.10
788;BME280;16074;42.708;23.312;2023-04-06T12:02:02;140687.44;;;9.85;47.61
788;BME280;16074;42.708;23.312;2023-04-06T12:04:31;140626.06;;;9.59;47.79
788;BME280;16074;42.708;23.312;2023-04-06T12:07:00;140617.66;;;9.56;47.70
788;BME280;16074;42.708;23.312;2023-04-06T12:09:28;140532.28;;;9.21;48.76
788;BME280;16074;42.708;23.312;2023-04-06T12:11:57;140470.94;;;8.95;49.42
788;BME280;16074;42.708;23.312;2023-04-06T12:14:27;140501.00;;;9.08;49.55
788;BME280;16074;42.708;23.312;2023-04-06T12:16:55;140529.88;;;9.20;49.77
788;BME280;16074;42.708;23.312;2023-04-06T12:19:24;140462.50;;;8.92;50.01
788;BME280;16074;42.708;23.312;2023-04-06T12:21:53;140503.41;;;9.09;49.06
788;BME280;16074;42.708;23.312;2023-04-06T12:24:21;140540.66;;;9.24;48.80
788;BME280;16074;42.708;23.312;2023-04-06T12:26:50;140599.59;;;9.48;47.71
788;BME280;16074;42.708;23.312;2023-04-06T12:29:33;140597.19;;;9.47;47.01
788;BME280;16074;42.708;23.312;2023-04-06T12:32:02;140565.97;;;9.35;47.56
788;BME280;16074;42.708;23.312;2023-04-06T12:34:30;140550.28;;;9.28;47.86
788;BME280;16074;42.708;23.312;2023-04-06T12:36:58;140460.09;;;8.91;47.62
788;BME280;16074;42.708;23.312;2023-04-06T12:39:27;140464.91;;;8.93;48.28
788;BME280;16074;42.708;23.312;2023-04-06T12:41:55;140443.28;;;8.84;48.72
788;BME280;16074;42.708;23.312;2023-04-06T12:44:24;140402.44;;;8.67;49.00
788;BME280;16074;42.708;23.312;2023-04-06T12:46:54;140363.97;;;8.51;49.00
788;BME280;16074;42.708;23.312;2023-04-06T12:49:23;140396.41;;;8.64;49.89
788;BME280;16074;42.708;23.312;2023-04-06T12:51:51;140354.34;;;8.47;49.39
788;BME280;16074;42.708;23.312;2023-04-06T12:54:19;140326.72;;;8.35;49.94
788;BME280;16074;42.708;23.312;2023-04-06T12:56:48;140300.28;;;8.25;50.40
788;BME280;16074;42.708;23.312;2023-04-06T12:59:16;140351.94;;;8.46;50.67
788;BME280;16074;42.708;23.312;2023-04-06T13:01:44;140374.75;;;8.55;50.18
788;BME280;16074;42.708;23.312;2023-04-06T13:04:14;140361.56;;;8.50;50.22
788;BME280;16074;42.708;23.312;2023-04-06T13:06:43;140388.00;;;8.61;49.89
788;BME280;16074;42.708;23.312;2023-04-06T13:09:11;140273.81;;;8.14;50.23
788;BME280;16074;42.708;23.312;2023-04-06T13:11:39;140314.72;;;8.30;49.92
788;BME280;16074;42.708;23.312;2023-04-06T13:14:08;140272.63;;;8.13;50.68
788;BME280;16074;42.708;23.312;2023-04-06T13:16:36;140282.28;;;8.17;50.63
788;BME280;16074;42.708;23.312;2023-04-06T13:19:05;140254.56;;;8.06;50.98
788;BME280;16074;42.708;23.312;2023-04-06T13:21:35;140260.59;;;8.08;50.36
788;BME280;16074;42.708;23.312;2023-04-06T13:24:03;140284.69;;;8.18;50.52
788;BME280;16074;42.708;23.312;2023-04-06T13:26:32;140287.09;;;8.19;50.38